Latest Weather Observations for Whyalla

IDS60801

Issued at 11:42 pm CST Tuesday 7 April 2020 (issued every 10 minutes, with the page automatically refreshed every 10 minutes)

About weather observations | Map of weather stations | Latest weather observations for SA | Other Formats
Station Details ID: 018120 Name: WHYALLA AERO Lat: -33.05 Lon: 137.52 Height: 9.3 m
Data from the previous 72 hours. | See also: Recent months at Whyalla
Date/Time
CST
Temp
°C
App
Temp
°C
Dew
Point
°C
Rel
Hum
%
Delta-T
°C
Wind Press
QNH
hPa
Press
MSL
hPa
Rain since
9am
mm
Dir  Spd
km/h
Gust
km/h
Spd
kts
Gust
kts
07/11:30pm 17.1 16.4 14.4 84 1.5 SSE 11 15 6 8 1021.8 1021.8 0.0
07/11:00pm 17.2 16.2 14.5 84 1.6 SSE 13 17 7 9 1022.0 1022.0 0.0
07/10:54pm 17.2 16.2 14.5 84 1.6 SSE 13 17 7 9 1022.0 1022.0 0.0
07/10:30pm 17.6 16.3 14.7 83 1.7 SE 15 20 8 11 1022.1 1022.1 0.0
07/10:28pm 17.6 16.3 14.7 83 1.7 SE 15 20 8 11 1022.1 1022.1 0.0
07/10:00pm 17.6 16.3 14.7 83 1.7 SSE 15 24 8 13 1021.9 1021.9 0.0
07/09:30pm 18.0 15.9 14.7 81 1.9 SSE 19 26 10 14 1021.9 1021.9 0.0
07/09:00pm 17.4 16.7 14.3 82 1.8 SW 11 19 6 10 1021.7 1021.7 0.0
07/08:30pm 17.6 16.1 14.3 81 1.9 SSW 15 20 8 11 1021.4 1021.4 0.0
07/08:00pm 18.2 15.9 14.1 77 2.3 S 19 24 10 13 1021.2 1021.2 0.0
07/07:30pm 18.3 15.5 14.2 77 2.3 S 22 32 12 17 1021.0 1021.0 0.0
07/07:00pm 18.3 15.0 14.0 76 2.5 S 24 32 13 17 1020.9 1020.9 0.0
07/06:30pm 18.3 15.9 13.8 75 2.6 S 19 24 10 13 1020.9 1020.9 0.0
07/06:00pm 18.5 14.7 13.6 73 2.8 S 26 33 14 18 1020.5 1020.5 0.0
07/05:30pm 18.9 15.2 14.0 73 2.8 S 26 33 14 18 1020.3 1020.3 0.0
07/05:00pm 19.6 16.0 14.2 71 3.1 S 26 33 14 18 1020.3 1020.3 0.0
07/04:30pm 20.3 16.9 13.7 66 3.8 S 24 32 13 17 1020.0 1020.0 0.0
07/04:00pm 20.9 17.5 13.6 63 4.2 S 24 30 13 16 1020.0 1020.0 0.0
07/03:30pm 21.1 17.7 12.5 58 4.8 S 22 30 12 16 1020.2 1020.2 0.0
07/03:00pm 20.8 17.4 12.5 59 4.7 SSE 22 30 12 16 1020.3 1020.3 0.0
07/02:30pm 21.0 18.0 12.7 59 4.7 SSE 20 28 11 15 1020.4 1020.4 0.0
07/02:00pm 20.4 17.4 12.4 60 4.5 SSE 20 26 11 14 1020.7 1020.7 0.0
07/01:30pm 21.4 18.5 12.8 58 4.9 SSE 20 26 11 14 1021.0 1021.0 0.0
07/01:00pm 21.2 18.1 12.3 57 5.0 SSE 20 30 11 16 1021.4 1021.4 0.0
07/12:30pm 20.8 17.8 12.0 57 4.9 SSE 19 24 10 13 1021.9 1021.9 0.0
07/12:00pm 20.0 17.7 13.0 64 4.0 SSE 17 22 9 12 1022.3 1022.3 0.0
07/11:30am 21.4 19.4 13.8 62 4.4 S 17 26 9 14 1022.5 1022.5 0.0
07/11:00am 20.0 18.3 13.5 66 3.7 SSE 15 22 8 12 1022.7 1022.7 0.0
07/10:30am 19.7 18.5 14.1 70 3.2 SSE 13 17 7 9 1022.9 1022.9 0.0
07/10:00am 19.2 18.2 14.7 75 2.6 SSE 13 17 7 9 1023.1 1023.1 0.0
07/09:30am 18.7 17.8 14.8 78 2.3 S 13 17 7 9 1023.1 1023.1 0.0
07/09:00am 17.9 17.4 14.8 82 1.8 SSW 11 15 6 8 1023.2 1023.2 0.0
07/08:30am 16.9 16.6 14.5 86 1.4 SW 9 13 5 7 1023.1 1023.1 0.0
07/08:00am 15.4 16.6 13.9 91 0.8 CALM 0 0 0 0 1022.9 1022.9 0.0
07/07:30am 14.5 14.2 13.4 93 0.6 WSW 7 9 4 5 1022.3 1022.3 0.0
07/07:00am 13.7 13.2 12.6 93 0.6 SW 7 7 4 4 1021.9 1021.9 0.0
07/06:30am 13.2 12.2 12.3 94 0.5 WSW 9 9 5 5 1021.8 1021.8 0.0
07/06:00am 12.4 11.7 11.5 94 0.5 WSW 6 7 3 4 1021.5 1021.5 0.0
07/05:30am 12.2 11.8 11.1 93 0.6 W 4 6 2 3 1021.5 1021.5 0.0
07/05:00am 12.9 12.3 11.8 93 0.6 WSW 6 7 3 4 1021.2 1021.2 0.0
07/04:30am 12.7 11.4 11.4 92 0.7 SW 9 11 5 6 1021.1 1021.1 0.0
07/04:00am 13.0 12.2 11.6 91 0.7 SSW 7 11 4 6 1021.0 1021.0 0.0
07/03:30am 12.9 11.7 11.5 91 0.7 SW 9 11 5 6 1020.9 1020.9 0.0
07/03:00am 13.1 12.4 11.3 89 0.9 S 6 7 3 4 1021.1 1021.1 0.0
07/02:30am 13.3 12.7 11.7 90 0.9 NW 6 50 3 27 1021.3 1021.3 0.0
07/02:00am 14.4 14.0 12.3 87 1.1 S 6 7 3 4 1021.3 1021.3 0.0
07/01:30am 14.2 13.5 11.9 86 1.2 SSW 7 9 4 5 1021.3 1021.3 0.0
07/01:00am 15.2 14.3 12.5 84 1.5 SW 9 11 5 6 1021.4 1021.4 0.0
07/12:30am 15.7 15.3 13.0 84 1.5 SSW 7 9 4 5 1021.6 1021.6 0.0
07/12:00am 16.0 15.5 12.6 80 1.9 SSE 7 9 4 5 1021.7 1021.7 0.0
 
Date/Time
CST
Temp
°C
App
Temp
°C
Dew
Point
°C
Rel
Hum
%
Delta-T
°C
Wind Press
QNH
hPa
Press
MSL
hPa
Rain since
9am
mm
Dir  Spd
km/h
Gust
km/h
Spd
kts
Gust
kts
06/11:30pm 17.6 16.8 13.9 79 2.1 SSE 11 13 6 7 1021.8 1021.8 0.0
06/11:00pm 18.2 17.4 14.1 77 2.3 S 11 17 6 9 1022.1 1022.1 0.0
06/10:30pm 17.9 17.2 14.2 79 2.1 S 11 17 6 9 1022.3 1022.3 0.0
06/10:00pm 17.7 16.6 14.4 81 1.9 SSW 13 20 7 11 1022.3 1022.3 0.0
06/09:30pm 18.5 17.3 14.0 75 2.6 S 13 15 7 8 1022.5 1022.5 0.0
06/09:00pm 18.5 17.8 14.2 76 2.5 SE 11 15 6 8 1022.2 1022.2 0.0
06/08:30pm 18.5 17.7 14.0 75 2.6 SE 11 15 6 8 1022.2 1022.2 0.0
06/08:00pm 18.3 17.9 14.0 76 2.5 SSE 9 13 5 7 1021.9 1021.9 0.0
06/07:30pm 18.5 17.7 14.0 75 2.6 SSE 11 15 6 8 1021.7 1021.7 0.0
06/07:00pm 18.6 17.4 14.1 75 2.6 SSE 13 19 7 10 1021.4 1021.4 0.0
06/06:30pm 18.6 17.3 13.7 73 2.8 SSE 13 19 7 10 1021.1 1021.1 0.0
06/06:00pm 18.9 17.2 13.5 71 3.1 SSE 15 20 8 11 1021.2 1021.2 0.0
06/05:30pm 19.0 16.8 13.4 70 3.2 SSE 17 24 9 13 1021.2 1021.2 0.0
06/05:00pm 19.5 16.4 12.3 63 4.0 SSE 20 28 11 15 1021.1 1021.1 0.0
06/04:30pm 19.5 16.8 13.0 66 3.7 SSE 19 26 10 14 1021.1 1021.1 0.0
06/04:00pm 20.0 17.2 12.5 62 4.2 SSE 19 26 10 14 1021.1 1021.1 0.0
06/03:30pm 20.8 18.3 13.5 63 4.2 SSE 19 26 10 14 1021.1 1021.1 0.0
06/03:00pm 20.7 18.5 13.2 62 4.3 ESE 17 22 9 12 1021.1 1021.1 0.0
06/02:30pm 20.2 17.7 12.2 60 4.5 SE 17 22 9 12 1021.1 1021.1 0.0
06/02:00pm 19.8 17.6 13.3 66 3.7 SE 17 22 9 12 1021.1 1021.1 0.0
06/01:30pm 19.8 18.3 13.0 65 3.8 SSE 13 19 7 10 1021.6 1021.6 0.0
06/01:00pm 19.2 17.7 13.2 68 3.4 SE 13 22 7 12 1021.9 1021.9 0.0
06/12:30pm 19.3 17.9 13.3 68 3.4 ESE 13 20 7 11 1022.3 1022.3 0.0
06/12:00pm 18.7 17.9 14.0 74 2.7 ESE 11 17 6 9 1022.7 1022.7 0.0
06/11:30am 18.2 17.0 13.9 76 2.4 ESE 13 20 7 11 1022.9 1022.9 0.0
06/11:00am 17.9 17.2 14.4 80 2.0 SSE 11 17 6 9 1023.0 1023.0 0.0
06/10:30am 18.2 16.9 14.7 80 2.0 SSW 15 20 8 11 1022.9 1022.9 0.0
06/10:00am 17.9 17.5 14.0 78 2.2 S 9 15 5 8 1023.1 1023.1 0.0
06/09:30am 17.9 17.7 13.6 76 2.4 S 7 15 4 8 1023.2 1023.2 0.0
06/09:00am 17.1 15.3 13.2 78 2.2 SW 15 17 8 9 1023.3 1023.3 0.0
06/08:55am 16.8 14.9 12.9 78 2.2 SW 15 20 8 11 1023.2 1023.2 0.0
06/08:30am 16.1 14.7 12.3 78 2.1 WSW 11 17 6 9 1023.3 1023.3 0.0
06/08:00am 14.6 13.0 11.4 81 1.7 WNW 11 13 6 7 1022.9 1022.9 0.0
06/07:46am 13.6 11.9 11.1 85 1.3 WNW 11 13 6 7 1022.7 1022.7 0.0
06/07:30am 12.0 10.5 10.4 90 0.8 NNW 9 11 5 6 1022.6 1022.6 0.0
06/07:00am 10.5 8.7 9.3 92 0.6 NNW 9 11 5 6 1022.3 1022.3 0.0
06/06:30am 10.2 8.2 8.8 91 0.7 NW 9 11 5 6 1022.0 1022.0 0.0
06/06:00am 10.5 9.1 8.8 89 0.8 WNW 6 7 3 4 1021.7 1021.7 0.0
06/05:30am 11.2 9.4 9.3 88 0.9 WNW 9 11 5 6 1021.4 1021.4 0.0
06/05:00am 11.6 9.9 9.7 88 1.0 NW 9 11 5 6 1021.3 1021.3 0.0
06/04:30am 11.6 9.7 9.2 85 1.2 NNW 9 11 5 6 1021.0 1021.0 0.0
06/04:00am 12.4 10.7 9.8 84 1.3 NNW 9 11 5 6 1021.0 1021.0 0.0
06/03:30am 13.0 12.0 10.4 84 1.3 NNW 6 7 3 4 1020.8 1020.8 0.0
06/03:00am 12.5 10.8 10.0 85 1.3 NW 9 9 5 5 1020.8 1020.8 0.0
06/02:30am 12.5 10.6 10.4 87 1.1 W 11 13 6 7 1020.7 1020.7 0.0
06/02:00am 11.7 10.1 8.9 83 1.4 W 7 13 4 7 1020.6 1020.6 0.0
06/01:30am 12.2 11.7 9.2 82 1.5 W 2 6 1 3 1020.5 1020.5 0.0
06/01:00am 12.8 11.6 9.6 81 1.6 W 6 9 3 5 1020.6 1020.6 0.0
06/12:30am 12.9 11.5 9.4 79 1.8 W 7 9 4 5 1020.5 1020.5 0.0
06/12:00am 13.4 11.1 9.1 75 2.2 WSW 11 15 6 8 1020.6 1020.6 0.0
 
Date/Time
CST
Temp
°C
App
Temp
°C
Dew
Point
°C
Rel
Hum
%
Delta-T
°C
Wind Press
QNH
hPa
Press
MSL
hPa
Rain since
9am
mm
Dir  Spd
km/h
Gust
km/h
Spd
kts
Gust
kts
05/11:30pm 15.1 13.3 10.7 75 2.3 SW 11 17 6 9 1020.5 1020.5 0.0
05/11:00pm 14.5 12.7 9.5 72 2.6 WSW 9 11 5 6 1020.7 1020.7 0.0
05/10:30pm 15.6 14.3 9.9 69 3.0 WSW 7 9 4 5 1020.7 1020.7 0.0
05/10:00pm 16.4 14.4 10.3 67 3.2 SW 11 13 6 7 1020.6 1020.6 0.0
05/09:30pm 16.8 15.3 10.4 66 3.4 W 9 11 5 6 1020.3 1020.3 0.0
05/09:00pm 17.8 16.3 10.7 63 3.8 WSW 9 11 5 6 1020.1 1020.1 0.0
05/08:30pm 18.5 16.3 10.8 61 4.1 SW 13 19 7 10 1019.8 1019.8 0.0
05/08:00pm 19.0 18.0 12.3 65 3.7 SSW 9 13 5 7 1019.5 1019.5 0.0
05/07:30pm 18.7 18.6 13.3 71 3.1 SE 6 7 3 4 1019.2 1019.2 0.0
05/07:00pm 18.8 18.1 13.2 70 3.2 SE 9 13 5 7 1019.0 1019.0 0.0
05/06:30pm 18.7 17.7 13.3 71 3.1 SE 11 15 6 8 1018.6 1018.6 0.0
05/06:00pm 18.7 17.6 13.1 70 3.2 SE 11 15 6 8 1018.3 1018.3 0.0
05/05:30pm 18.8 17.3 13.0 69 3.3 SE 13 19 7 10 1018.1 1018.1 0.0
05/05:00pm 19.2 17.1 12.5 65 3.7 SE 15 20 8 11 1017.7 1017.7 0.0
05/04:30pm 21.2 17.2 9.1 46 6.4 SW 20 28 11 15 1017.4 1017.4 0.0
05/04:00pm 21.2 17.8 9.1 46 6.4 SW 17 24 9 13 1017.4 1017.4 0.0
05/03:30pm 21.3 17.3 8.9 45 6.6 WSW 20 30 11 16 1017.5 1017.5 0.0
05/03:00pm 21.2 16.8 9.1 46 6.4 WSW 22 33 12 18 1017.4 1017.4 0.0
05/02:30pm 21.6 16.9 9.2 45 6.6 W 24 33 13 18 1017.4 1017.4 0.0
05/02:00pm 20.8 16.9 9.4 48 6.1 W 20 32 11 17 1017.7 1017.7 0.0
05/01:30pm 20.2 16.2 9.2 49 5.8 W 20 28 11 15 1018.1 1018.1 0.0
05/01:00pm 20.4 16.5 9.6 50 5.8 WNW 20 30 11 16 1018.6 1018.6 0.0
05/12:30pm 19.7 16.2 10.1 54 5.1 WNW 19 28 10 15 1019.0 1019.0 0.0
05/12:00pm 19.3 16.1 9.8 54 5.0 W 17 28 9 15 1019.4 1019.4 0.0
05/11:30am 19.4 16.2 9.9 54 5.1 W 17 24 9 13 1019.5 1019.5 0.0
05/11:00am 18.6 14.8 9.7 56 4.7 WSW 20 35 11 19 1019.6 1019.6 0.0
05/10:30am 18.6 15.0 9.7 56 4.7 W 19 30 10 16 1019.5 1019.5 0.0
05/10:00am 17.9 15.2 10.5 62 4.0 W 15 26 8 14 1019.8 1019.8 0.0
05/09:30am 17.0 13.6 10.4 65 3.5 WNW 19 24 10 13 1019.9 1019.9 0.0
05/09:00am 16.6 13.6 10.7 68 3.1 NW 17 22 9 12 1019.8 1019.8 0.0
05/08:30am 15.0 11.6 10.4 74 2.4 WNW 19 22 10 12 1019.7 1019.7 0.0
05/08:00am 13.1 9.9 9.9 81 1.6 NW 17 22 9 12 1019.4 1019.4 0.0
05/07:30am 11.9 9.3 9.5 85 1.2 NW 13 19 7 10 1018.9 1018.9 0.0
05/07:00am 11.2 7.8 9.3 88 1.0 NW 17 20 9 11 1018.4 1018.4 0.0
05/06:30am 10.2 7.0 8.6 90 0.8 NW 15 19 8 10 1018.1 1018.1 0.0
05/06:00am 10.3 7.5 8.4 88 0.9 NW 13 15 7 8 1017.8 1017.8 0.0
05/05:30am 10.9 7.8 9.0 88 0.9 NW 15 19 8 10 1017.5 1017.5 0.0
05/05:00am 10.7 8.0 8.8 88 0.9 NW 13 17 7 9 1017.3 1017.3 0.0
05/04:30am 11.0 7.6 9.1 88 0.9 WNW 17 19 9 10 1017.1 1017.1 0.0
05/04:00am 10.8 7.7 8.9 88 0.9 NW 15 19 8 10 1017.0 1017.0 0.0
05/03:30am 11.0 8.3 8.8 86 1.1 NW 13 17 7 9 1016.7 1016.7 0.0
05/03:00am 11.1 8.4 8.8 86 1.1 NW 13 17 7 9 1016.9 1016.9 0.0
05/03:30am 11.3 8.5 8.7 84 1.3 WNW 13 17 7 9 1017.1 1017.1 0.0
05/03:00am 11.7 8.9 8.7 82 1.5 NW 13 17 7 9 1017.2 1017.2 0.0
05/02:30am 11.9 9.2 8.9 82 1.5 WNW 13 17 7 9 1017.1 1017.1 0.0
05/02:00am 11.3 8.8 8.2 81 1.5 NNW 11 13 6 7 1017.1 1017.1 0.0
05/01:30am 12.3 10.3 8.6 78 1.8 NW 9 11 5 6 1017.1 1017.1 0.0
05/01:00am 13.7 10.7 9.4 75 2.2 W 15 19 8 10 1017.2 1017.2 0.0

Other formats

Comma delimited format used in spreadsheet applications
http://www.bom.gov.au/fwo/IDS60801/IDS60801.95664.axf

JavaScript Object Notation format (JSON) in row-major order
http://www.bom.gov.au/fwo/IDS60801/IDS60801.95664.json

Data quality

Most of these data are generated automatically and are frequently updated. Quality checks on data are not normally performed. It is possible for incorrect values to appear. Refer to information at About Latest Weather Observations and please check the disclaimer before using these data.